Time;durP1;ratioP1;P1;durP2;ratioP2;P2;SDS_P1;SDS_P2;PMS_P1;PMS_P2;Temp;Humidity;BMP_temperature;BMP_pressure;BME280_temperature;BME280_humidity;BME280_pressure;Samples;Min_cycle;Max_cycle;Signal;HPM_P1;HPM_P2
2022/03/13 00:01:02;;;;;;;22.95;12.55;;;;;;;;;;6227650;22;20023;-91
2022/03/13 00:03:34;;;;;;;19.92;12.63;;;;;;;;;;6162585;23;20024;-90
2022/03/13 00:06:27;;;;;;;19.33;11.95;;;;;;;;;;6158847;22;20052;-88
2022/03/13 00:09:26;;;;;;;21.25;12.23;;;;;;;;;;6152666;23;20032;-87
2022/03/13 00:11:56;;;;;;;19.05;12.50;;;;;;;;;;6153814;23;20005;-90
2022/03/13 00:17:03;;;;;;;15.90;11.23;;;;;;;;;;6238912;23;20024;-89
2022/03/13 00:19:38;;;;;;;22.38;13.00;;;;;;;;;;6187926;23;20024;-88
2022/03/13 00:22:37;;;;;;;22.38;13.80;;;;;;;;;;6228702;22;20043;-87
2022/03/13 00:25:33;;;;;;;19.05;13.43;;;;;;;;;;6205482;23;20025;-88
2022/03/13 00:28:03;;;;;;;17.80;11.90;;;;;;;;;;6155751;23;20029;-88
2022/03/13 00:30:36;;;;;;;20.00;13.15;;;;;;;;;;6158180;23;20032;-88
2022/03/13 00:33:23;;;;;;;15.40;11.93;;;;;;;;;;6166122;23;20008;-93
2022/03/13 00:35:51;;;;;;;19.70;12.63;;;;;;;;;;6185808;23;20355;-91
2022/03/13 00:38:22;;;;;;;19.83;12.70;;;;;;;;;;6210675;23;20044;-88
2022/03/13 00:40:58;;;;;;;17.38;12.30;;;;;;;;;;6209227;23;20021;-87
2022/03/13 00:43:46;;;;;;;19.60;12.13;;;;;;;;;;6211598;23;20025;-88
2022/03/13 00:49:27;;;;;;;18.67;12.88;;;;;;;;;;6213104;22;20025;-87
2022/03/13 00:51:58;;;;;;;20.58;12.00;;;;;;;;;;6199061;23;20051;-87
2022/03/13 00:54:33;;;;;;;17.73;11.70;;;;;;;;;;6226224;23;20008;-87
2022/03/13 00:57:17;;;;;;;20.88;13.40;;;;;;;;;;6208820;23;20031;-87
2022/03/13 01:02:43;;;;;;;18.17;12.90;;;;;;;;;;6218481;22;20028;-87
2022/03/13 01:05:32;;;;;;;19.42;12.52;;;;;;;;;;6178937;23;20025;-87
2022/03/13 01:08:26;;;;;;;;;;;;;;;;;;;;;
2022/03/13 01:14:35;;;;;;;23.70;14.02;;;;;;;;;;6227889;22;20021;-87
2022/03/13 01:20:03;;;;;;;19.35;13.75;;;;;;;;;;6228245;23;19939;-86
2022/03/13 01:31:16;;;;;;;28.40;13.60;;;;;;;;;;6216771;22;20080;-87
2022/03/13 01:39:06;;;;;;;21.02;13.02;;;;;;;;;;6232241;23;20031;-86
2022/03/13 01:44:36;;;;;;;18.98;12.45;;;7.20;99.90;;;;;;6233739;22;20028;-86
2022/03/13 01:47:06;;;;;;;18.67;12.60;;;;;;;;;;6152126;23;20021;-88
2022/03/13 01:49:44;;;;;;;20.92;12.80;;;;;;;;;;6154168;23;20030;-89
2022/03/13 01:52:33;;;;;;;18.42;12.60;;;;;;;;;;6205393;23;20052;-86
2022/03/13 01:55:02;;;;;;;19.75;12.43;;;;;;;;;;6183121;23;20216;-87
2022/03/13 01:57:45;;;;;;;18.75;13.95;;;;;;;;;;6147794;23;20069;-87
2022/03/13 02:00:14;;;;;;;26.88;13.95;;;;;;;;;;6148495;23;20049;-87
2022/03/13 02:02:54;;;;;;;21.10;12.75;;;;;;;;;;6151967;23;20075;-87
2022/03/13 02:05:38;;;;;;;20.90;13.52;;;;;;;;;;6192035;23;20510;-89
2022/03/13 02:08:15;;;;;;;22.77;13.25;;;;;;;;;;6184056;23;20008;-88
2022/03/13 02:10:55;;;;;;;19.05;12.85;;;;;;;;;;6234266;23;20017;-87
2022/03/13 02:13:24;;;;;;;20.02;13.15;;;;;;;;;;6185503;23;20067;-87
2022/03/13 02:15:54;;;;;;;20.05;13.32;;;;;;;;;;6183556;23;20027;-87
2022/03/13 02:18:27;;;;;;;21.20;13.07;;;;;;;;;;6210211;23;20016;-87
2022/03/13 02:21:02;;;;;;;21.67;14.18;;;;;;;;;;6184687;23;20092;-87
2022/03/13 02:23:30;;;;;;;27.83;13.80;;;;;;;;;;6186283;23;20388;-87
2022/03/13 02:26:12;;;;;;;18.75;13.07;;;;;;;;;;6236321;23;20024;-88
2022/03/13 02:29:02;;;;;;;18.80;13.32;;;;;;;;;;6191102;23;20020;-87
2022/03/13 02:32:00;;;;;;;19.65;13.70;;;;;;;;;;6216089;23;20032;-87
2022/03/13 02:34:32;;;;;;;19.13;13.50;;;;;;;;;;6240023;23;20031;-87
2022/03/13 02:37:02;;;;;;;17.35;12.57;;;;;;;;;;6214989;23;20020;-88
2022/03/13 02:39:55;;;;;;;21.75;13.18;;;;;;;;;;6215218;23;20020;-88
2022/03/13 02:42:30;;;;;;;24.35;14.70;;;;;;;;;;6181218;23;20024;-86
2022/03/13 02:45:00;;;;;;;20.20;12.80;;;;;;;;;;6181349;23;20020;-87
2022/03/13 02:47:35;;;;;;;18.58;12.65;;;;;;;;;;6199001;23;20075;-87
2022/03/13 02:50:01;;;;;;;16.85;12.63;;;;;;;;;;6208164;23;20119;-86
2022/03/13 02:52:34;;;;;;;19.83;13.38;;;;;;;;;;6232029;23;20021;-86
2022/03/13 02:55:04;;;;;;;22.60;13.93;;;;;;;;;;6209207;23;20343;-86
2022/03/13 02:57:31;;;;;;;20.05;12.85;;;;;;;;;;6200027;23;20387;-88
2022/03/13 02:59:58;;;;;;;22.58;13.45;;;;;;;;;;6177861;23;20021;-88
2022/03/13 03:02:32;;;;;;;18.25;12.75;;;;;;;;;;6204258;23;20048;-87
2022/03/13 03:05:14;;;;;;;19.15;12.90;;;;;;;;;;6158054;23;20032;-87
2022/03/13 03:07:44;;;;;;;19.60;13.63;;;;;;;;;;6173749;23;20443;-87
2022/03/13 03:10:19;;;;;;;20.23;13.27;;;;;;;;;;6199373;23;20017;-87
2022/03/13 03:12:50;;;;;;;18.42;12.77;;;;;;;;;;6170560;23;20021;-88
2022/03/13 03:15:19;;;;;;;26.05;15.30;;;;;;;;;;6197323;23;20017;-87
2022/03/13 03:17:47;;;;;;;17.38;12.75;;;;;;;;;;6207850;23;20052;-88
2022/03/13 03:20:16;;;;;;;20.88;13.82;;;;;;;;;;6232421;23;20069;-87
2022/03/13 03:22:49;;;;;;;24.58;15.35;;;;;;;;;;6209799;23;20078;-89
2022/03/13 03:25:22;;;;;;;22.58;14.68;;;;;;;;;;6183696;23;20100;-86
2022/03/13 03:27:48;;;;;;;19.70;13.35;;;;;;;;;;6183237;23;20016;-87
2022/03/13 03:30:19;;;;;;;18.58;13.68;;;;;;;;;;6203648;23;20021;-91
2022/03/13 03:32:48;;;;;;;19.48;12.73;;;;;;;;;;6203242;23;20016;-89
2022/03/13 03:35:15;;;;;;;17.92;12.90;;;;;;;;;;6184161;23;20023;-89
2022/03/13 03:37:50;;;;;;;19.75;13.27;;;;;;;;;;6185956;23;20021;-92
2022/03/13 03:40:26;;;;;;;17.30;13.32;;;;;;;;;;6209229;23;20021;-89
2022/03/13 03:43:11;;;;;;;21.55;13.48;;;;;;;;;;6184931;23;20021;-89
2022/03/13 03:48:16;;;;;;;22.05;13.50;;;;;;;;;;6236936;23;19922;-88
2022/03/13 03:50:46;;;;;;;21.13;14.40;;;;;;;;;;6186542;23;20025;-88
2022/03/13 03:55:59;;;;;;;21.67;14.57;;;;;;;;;;6237132;22;20024;-88
2022/03/13 04:00:56;;;;;;;23.90;14.32;;;;;;;;;;6232857;22;20071;-88
2022/03/13 04:03:23;;;;;;;23.95;13.80;;;;;;;;;;6181326;23;20036;-90
2022/03/13 04:05:49;;;;;;;20.20;13.00;;;;;;;;;;6164368;23;20008;-94
2022/03/13 04:08:20;;;;;;;20.85;13.30;;;;;;;;;;6213391;23;20023;-92
2022/03/13 04:10:47;;;;;;;22.83;14.40;;;;;;;;;;6215115;23;20020;-93
2022/03/13 04:13:27;;;;;;;22.33;14.23;;;;;;;;;;6217830;23;20017;-91
2022/03/13 04:15:55;;;;;;;21.85;14.40;;;;;;;;;;6216128;23;20036;-89
2022/03/13 04:18:42;;;;;;;21.70;14.27;;;;;;;;;;6194512;23;20039;-87
2022/03/13 04:21:10;;;;;;;22.02;14.75;;;;;;;;;;6180999;23;20028;-89
2022/03/13 04:23:37;;;;;;;27.92;16.60;;;;;;;;;;6179907;23;20017;-89
2022/03/13 04:26:06;;;;;;;22.35;14.32;;;;;;;;;;6158184;23;20021;-89
2022/03/13 04:28:36;;;;;;;22.55;14.43;;;;;;;;;;6181956;23;20021;-90
2022/03/13 04:31:05;;;;;;;21.92;13.85;;;;;;;;;;6181735;23;20043;-89
2022/03/13 04:33:36;;;;;;;23.17;14.95;;;;;;;;;;6183610;23;20019;-87
2022/03/13 04:36:10;;;;;;;20.77;14.43;;;;;;;;;;6183653;23;20005;-88
2022/03/13 04:41:12;;;;;;;21.45;14.15;;;;;;;;;;6243703;22;20009;-87
2022/03/13 04:43:40;;;;;;;18.73;13.55;;;;;;;;;;6190974;23;20047;-87
2022/03/13 04:46:18;;;;;;;20.42;14.27;;;;;;;;;;6193649;23;20016;-87
2022/03/13 04:48:49;;;;;;;18.10;13.57;;;;;;;;;;6215935;23;20020;-88
2022/03/13 04:54:00;;;;;;;18.80;12.88;;;6.60;99.90;;;;;;6237025;22;20012;-86
2022/03/13 04:56:34;;;;;;;18.05;12.68;;;;;;;;;;6217608;23;20025;-87
2022/03/13 04:59:09;;;;;;;20.98;14.13;;;;;;;;;;6241627;22;20005;-90
2022/03/13 05:01:43;;;;;;;21.05;13.70;;;;;;;;;;6204412;22;20013;-87
2022/03/13 05:04:39;;;;;;;21.95;12.52;;;;;;;;;;6145058;23;20014;-87
2022/03/13 05:10:15;;;;;;;20.27;14.07;;;;;;;;;;6218331;22;20086;-86
2022/03/13 05:12:49;;;;;;;23.08;14.93;;;;;;;;;;6177717;22;20017;-86
2022/03/13 05:16:06;;;;;;;21.20;13.65;;;6.40;99.90;;;;;;6172654;23;20031;-87
2022/03/13 05:18:32;;;;;;;20.67;14.20;;;;;;;;;;6171627;23;20025;-87
2022/03/13 05:21:04;;;;;;;24.15;13.75;;;;;;;;;;6198620;23;20343;-86
2022/03/13 05:26:19;;;;;;;21.38;14.23;;;;;;;;;;6228688;23;20023;-86
2022/03/13 05:28:54;;;;;;;20.52;14.93;;;;;;;;;;6179899;23;20554;-86
2022/03/13 05:31:59;;;;;;;22.08;13.88;;;;;;;;;;6176986;23;20029;-86
2022/03/13 05:34:27;;;;;;;27.10;14.00;;;;;;;;;;6173322;23;20025;-87
2022/03/13 05:37:04;;;;;;;21.13;13.90;;;;;;;;;;6166320;23;20017;-90
2022/03/13 05:39:49;;;;;;;23.63;14.63;;;;;;;;;;6189513;23;20063;-87
2022/03/13 05:42:34;;;;;;;;;;;;;;;;;;;;;
2022/03/13 05:45:02;;;;;;;22.25;14.15;;;;;;;;;;6166067;23;20017;-87
2022/03/13 05:47:31;;;;;;;20.98;14.25;;;;;;;;;;6198720;23;20021;-87
2022/03/13 05:50:07;;;;;;;22.10;14.32;;;;;;;;;;6176926;23;20025;-88
2022/03/13 05:52:34;;;;;;;21.08;14.00;;;;;;;;;;6167467;23;20072;-88
2022/03/13 05:55:05;;;;;;;26.23;14.00;;;;;;;;;;6177275;23;20028;-87
2022/03/13 05:57:40;;;;;;;19.67;14.23;;;;;;;;;;6196979;23;20041;-89
2022/03/13 06:00:08;;;;;;;20.38;13.88;;;;;;;;;;6224679;23;20080;-87
2022/03/13 06:02:39;;;;;;;30.23;14.68;;;;;;;;;;6208585;23;20027;-89
2022/03/13 06:05:10;;;;;;;25.38;13.48;;;;;;;;;;6206971;23;20017;-90
2022/03/13 06:07:38;;;;;;;24.27;15.45;;;;;;;;;;6209816;23;20017;-89
2022/03/13 06:10:25;;;;;;;23.25;13.63;;;;;;;;;;6151730;23;20100;-89
2022/03/13 06:12:54;;;;;;;20.35;13.32;;;;;;;;;;6126591;23;20025;-88
2022/03/13 06:15:23;;;;;;;21.10;14.95;;;;;;;;;;6160099;23;20032;-88
2022/03/13 06:17:56;;;;;;;25.10;14.13;;;;;;;;;;6211058;23;20092;-87
2022/03/13 06:20:34;;;;;;;20.40;13.47;;;;;;;;;;6183137;23;20054;-88
2022/03/13 06:23:29;;;;;;;19.52;15.00;;;;;;;;;;6197905;23;20029;-87
2022/03/13 06:25:59;;;;;;;19.65;12.82;;;;;;;;;;6179984;23;20025;-87
2022/03/13 06:28:41;;;;;;;22.83;12.75;;;;;;;;;;6205505;23;20019;-87
2022/03/13 06:33:37;;;;;;;24.63;13.13;;;;;;;;;;6197106;23;20021;-89
2022/03/13 06:36:10;;;;;;;17.35;12.60;;;;;;;;;;6157471;23;20048;-88
2022/03/13 06:38:58;;;;;;;19.15;13.25;;;;;;;;;;6211666;23;20060;-87
2022/03/13 06:44:07;;;;;;;19.08;12.18;;;;;;;;;;6211447;22;19909;-87
2022/03/13 06:46:40;;;;;;;20.38;12.80;;;;;;;;;;6219274;23;20029;-87
2022/03/13 06:49:28;;;;;;;21.80;12.40;;;;;;;;;;6216887;23;20024;-89
2022/03/13 06:51:59;;;;;;;20.63;13.38;;;;;;;;;;6245413;23;20016;-88
2022/03/13 06:54:30;;;;;;;18.08;12.43;;;;;;;;;;6242223;23;20024;-88
2022/03/13 06:57:08;;;;;;;17.63;12.88;;;;;;;;;;6268902;23;20040;-90
2022/03/13 06:59:34;;;;;;;18.15;12.68;;;;;;;;;;6216400;23;20024;-88
2022/03/13 07:02:00;;;;;;;16.67;11.98;;;;;;;;;;6217577;23;20023;-87
2022/03/13 07:04:26;;;;;;;19.40;13.02;;;;;;;;;;6217100;23;20020;-88
2022/03/13 07:06:56;;;;;;;18.20;12.50;;;;;;;;;;6195779;23;20013;-88
2022/03/13 07:09:42;;;;;;;19.27;12.40;;;;;;;;;;6180240;22;20027;-89
2022/03/13 07:14:57;;;;;;;18.02;11.23;;;;;;;;;;6226158;23;20021;-89
2022/03/13 07:17:46;;;;;;;19.40;12.43;;;;;;;;;;6157378;23;20014;-88
2022/03/13 07:20:20;;;;;;;19.40;13.30;;;;;;;;;;6155559;23;20018;-88
2022/03/13 07:22:57;;;;;;;15.98;11.77;;;;;;;;;;6156427;23;20052;-92
2022/03/13 07:25:38;;;;;;;18.05;11.77;;;;;;;;;;6154159;23;20045;-89
2022/03/13 07:30:39;;;;;;;20.65;11.88;;;;;;;;;;6235474;23;20029;-95
2022/03/13 07:33:05;;;;;;;26.40;12.02;;;;;;;;;;6187230;23;20047;-95
2022/03/13 07:36:02;;;;;;;18.83;12.32;;;;;;;;;;6189970;23;20055;-92
2022/03/13 07:38:34;;;;;;;19.70;11.57;;;;;;;;;;6237109;22;20307;-88
2022/03/13 07:41:04;;;;;;;19.00;11.88;;;;;;;;;;6181398;23;20500;-89
2022/03/13 07:43:33;;;;;;;17.83;12.07;;;;;;;;;;6205918;23;20101;-88
2022/03/13 07:46:26;;;;;;;15.13;10.77;;;;;;;;;;6233544;23;20136;-95
2022/03/13 07:48:53;;;;;;;;;;;6.60;99.90;;;;;;6181659;23;20044;-89
2022/03/13 07:51:19;;;;;;;17.73;11.38;;;;;;;;;;6183353;23;19955;-88
2022/03/13 07:53:49;;;;;;;14.40;10.38;;;;;;;;;;6182050;23;20343;-89
2022/03/13 07:56:18;;;;;;;18.13;11.55;;;;;;;;;;6184112;23;20027;-91
2022/03/13 07:58:49;;;;;;;18.80;11.15;;;;;;;;;;6207031;23;20039;-90
2022/03/13 08:01:21;;;;;;;14.23;10.27;;;;;;;;;;6208904;23;20016;-93
2022/03/13 08:03:53;;;;;;;16.05;12.32;;;;;;;;;;6186669;23;20019;-92
2022/03/13 08:06:23;;;;;;;16.02;11.48;;;;;;;;;;6210643;23;20091;-91
2022/03/13 08:08:50;;;;;;;16.90;10.90;;;;;;;;;;6178919;23;20092;-96
2022/03/13 08:11:16;;;;;;;17.02;10.90;;;;;;;;;;6187669;23;20008;-96
2022/03/13 08:13:42;;;;;;;17.30;12.02;;;;;;;;;;6217321;23;20020;-96
2022/03/13 08:16:08;;;;;;;17.55;11.50;;;;;;;;;;6217342;23;20020;-95
2022/03/13 08:18:35;;;;;;;17.15;11.32;;;;;;;;;;6216210;23;20016;-92
2022/03/13 08:21:01;;;;;;;20.35;11.40;;;;;;;;;;6216023;23;20020;-94
2022/03/13 08:23:27;;;;;;;16.55;11.98;;;;;;;;;;6217165;23;20027;-92
2022/03/13 08:25:53;;;;;;;19.83;11.88;;;;;;;;;;6217274;23;20020;-91
2022/03/13 08:28:19;;;;;;;18.25;10.82;;;;;;;;;;6215142;23;20020;-94
2022/03/13 08:30:45;;;;;;;16.55;10.60;;;;;;;;;;6237351;23;20022;-95
2022/03/13 08:33:11;;;;;;;19.92;11.23;;;;;;;;;;6217109;23;20035;-94
2022/03/13 08:35:37;;;;;;;18.48;11.18;;;;;;;;;;6241649;23;20047;-91
2022/03/13 08:38:04;;;;;;;20.60;11.10;;;;;;;;;;6217230;23;20040;-89
2022/03/13 08:40:30;;;;;;;15.88;11.20;;;;;;;;;;6217152;23;20020;-92
2022/03/13 08:42:56;;;;;;;15.63;10.75;;;;;;;;;;6216668;23;20067;-96
2022/03/13 08:45:24;;;;;;;16.08;10.27;;;;;;;;;;6235136;22;20211;-96
2022/03/13 08:47:50;;;;;;;20.92;11.55;;;;;;;;;;6148682;23;20067;-95
2022/03/13 08:50:16;;;;;;;17.75;11.38;;;;;;;;;;6153477;23;20057;-93
2022/03/13 08:52:43;;;;;;;16.75;10.52;;;;;;;;;;6182208;23;20022;-95
2022/03/13 08:55:13;;;;;;;16.55;11.68;;;;;;;;;;6145773;23;20044;-96
2022/03/13 08:57:41;;;;;;;14.93;11.15;;;;;;;;;;6143477;23;20070;-95
2022/03/13 09:00:09;;;;;;;16.80;11.30;;;;;;;;;;6155415;23;20005;-95
2022/03/13 09:02:43;;;;;;;16.67;11.60;;;;;;;;;;6167183;23;20097;-93
2022/03/13 09:05:10;;;;;;;15.73;10.38;;;;;;;;;;6161378;23;20025;-96
2022/03/13 09:07:36;;;;;;;15.50;11.15;;;;;;;;;;6159254;23;20017;-96
2022/03/13 09:10:05;;;;;;;14.88;10.98;;;;;;;;;;6211068;22;20023;-94
2022/03/13 09:12:31;;;;;;;15.30;10.85;;;;;;;;;;6239201;23;20446;-96
2022/03/13 09:14:58;;;;;;;14.38;10.13;;;;;;;;;;6214302;23;20047;-94
2022/03/13 09:17:24;;;;;;;20.63;10.93;;;;;;;;;;6231138;23;20016;-96
2022/03/13 09:19:50;;;;;;;16.35;10.80;;;;;;;;;;6209124;23;20035;-93
2022/03/13 09:22:18;;;;;;;14.00;10.63;;;;;;;;;;6218048;23;20060;-94
2022/03/13 09:24:47;;;;;;;15.95;9.60;;;;;;;;;;6216681;23;20016;-91
2022/03/13 09:27:14;;;;;;;18.10;11.55;;;;;;;;;;6215199;23;20052;-91
2022/03/13 09:29:40;;;;;;;16.85;10.05;;;;;;;;;;6208120;23;20070;-94
2022/03/13 09:32:06;;;;;;;14.50;10.52;;;;;;;;;;6209841;23;20327;-94
2022/03/13 09:34:33;;;;;;;15.35;11.30;;;;;;;;;;6208195;23;20020;-90
2022/03/13 09:36:59;;;;;;;15.15;9.98;;;;;;;;;;6243554;23;20475;-90
2022/03/13 09:39:29;;;;;;;14.00;10.07;;;;;;;;;;6239283;23;20027;-89
2022/03/13 09:41:59;;;;;;;16.45;10.38;;;;;;;;;;6243122;23;20064;-89
2022/03/13 09:44:25;;;;;;;16.00;10.27;;;;;;;;;;6217885;23;20020;-89
2022/03/13 09:47:06;;;;;;;14.93;9.90;;;;;;;;;;6202833;23;20100;-90
2022/03/13 09:49:32;;;;;;;19.60;10.80;;;;;;;;;;6188597;23;20087;-89
2022/03/13 09:51:59;;;;;;;16.20;10.00;;;;;;;;;;6190383;23;20055;-89
2022/03/13 09:54:25;;;;;;;13.90;9.65;;;;;;;;;;6188733;23;20051;-90
2022/03/13 09:59:29;;;;;;;18.33;10.80;;;;;;;;;;6204443;23;20109;-96
2022/03/13 10:01:56;;;;;;;16.23;10.40;;;;;;;;;;6159921;23;20040;-92
2022/03/13 10:04:23;;;;;;;16.88;10.18;;;;;;;;;;6160226;23;20522;-92
2022/03/13 10:07:03;;;;;;;15.43;10.57;;;;;;;;;;6163951;23;20029;-96
2022/03/13 10:09:29;;;;;;;17.92;11.43;;;;;;;;;;6184029;23;20025;-93
2022/03/13 10:12:10;;;;;;;15.75;10.73;;;;;;;;;;6189209;23;20080;-88
2022/03/13 10:14:55;;;;;;;12.30;9.90;;;;;;;;;;6190839;23;20028;-91
2022/03/13 10:17:40;;;;;;;17.13;10.50;;;;;;;;;;6211052;23;20040;-89
2022/03/13 10:20:20;;;;;;;14.88;10.70;;;;;;;;;;6148447;23;20029;-87
2022/03/13 10:23:05;;;;;;;19.02;10.85;;;;;;;;;;6126696;23;20018;-91
2022/03/13 10:25:52;;;;;;;16.95;9.93;;;;;;;;;;6215285;23;20445;-95
2022/03/13 10:28:23;;;;;;;15.32;10.48;;;;;;;;;;6209901;23;20022;-92
2022/03/13 10:31:11;;;;;;;16.83;10.52;;;;;;;;;;6212658;23;20022;-92
2022/03/13 10:34:03;;;;;;;;;;;11.30;99.90;;;;;;6210128;23;20017;-91
2022/03/13 10:36:38;;;;;;;15.50;10.98;;;;;;;;;;6091183;23;19948;-96
2022/03/13 10:41:44;;;;;;;16.38;10.30;;;;;;;;;;6214511;22;20051;-94
2022/03/13 10:44:13;;;;;;;17.50;11.02;;;;;;;;;;6156441;23;20025;-96
2022/03/13 10:49:10;;;;;;;15.88;10.60;;;;;;;;;;6228193;22;20035;-96
2022/03/13 10:51:50;;;;;;;14.70;9.80;;;;;;;;;;6236604;22;20028;-93
2022/03/13 10:54:30;;;;;;;14.40;10.65;;;;;;;;;;6192848;23;20024;-94
2022/03/13 10:57:09;;;;;;;14.48;10.98;;;;;;;;;;6166461;23;20021;-90
2022/03/13 11:00:07;;;;;;;15.18;10.82;;;;;;;;;;6210237;23;20052;-95
2022/03/13 11:02:33;;;;;;;17.52;10.95;;;;;;;;;;6183737;23;20017;-88
2022/03/13 11:05:04;;;;;;;15.57;10.30;;;;;;;;;;6207308;23;20013;-88
2022/03/13 11:07:40;;;;;;;17.35;11.13;;;;;;;;;;6209940;23;20020;-87
2022/03/13 11:10:07;;;;;;;15.75;11.38;;;;;;;;;;6207398;23;20008;-93
2022/03/13 11:12:34;;;;;;;19.40;11.23;;;;;;;;;;6141302;23;20031;-93
2022/03/13 11:15:02;;;;;;;14.18;10.38;;;;;;;;;;6087363;23;20060;-90
2022/03/13 11:17:30;;;;;;;18.67;10.73;;;;;;;;;;6079931;23;20152;-95
2022/03/13 11:19:59;;;;;;;16.73;10.75;;;;;;;;;;6083486;23;20018;-94
2022/03/13 11:22:29;;;;;;;15.85;10.32;;;;;;;;;;6114699;23;20018;-90
2022/03/13 11:24:57;;;;;;;16.98;10.73;;;;;;;;;;6090016;23;20052;-92
2022/03/13 11:27:25;;;;;;;16.08;10.50;;;;;;;;;;6111898;23;20018;-92
2022/03/13 11:29:52;;;;;;;15.27;10.75;;;;;;;;;;6090120;23;20456;-90
2022/03/13 11:32:32;;;;;;;14.63;10.45;;;;;;;;;;6112357;23;20022;-91
2022/03/13 11:35:33;;;;;;;16.70;10.00;;;13.20;99.90;;;;;;6135358;23;20018;-91
2022/03/13 11:38:05;;;;;;;17.50;10.77;;;;;;;;;;6055339;23;20019;-91
2022/03/13 11:40:33;;;;;;;15.45;10.98;;;;;;;;;;6080792;23;20030;-91
2022/03/13 11:43:05;;;;;;;14.68;10.30;;;;;;;;;;6071940;23;20349;-93
2022/03/13 11:45:36;;;;;;;15.25;10.07;;;;;;;;;;6140894;23;20018;-91
2022/03/13 11:48:19;;;;;;;19.40;10.70;;;;;;;;;;6137833;23;20017;-92
2022/03/13 11:50:48;;;;;;;15.95;11.10;;;;;;;;;;6156672;23;20017;-89
2022/03/13 11:53:21;;;;;;;18.55;10.95;;;;;;;;;;6140651;23;20022;-92
2022/03/13 11:56:02;;;;;;;17.65;9.90;;;;;;;;;;6140393;23;20022;-92
2022/03/13 11:58:48;;;;;;;13.70;10.15;;;;;;;;;;6167407;23;20021;-91
2022/03/13 12:01:15;;;;;;;12.90;9.63;;;;;;;;;;6137936;23;20033;-91
2022/03/13 12:04:14;;;;;;;14.70;10.40;;;14.00;99.90;;;;;;6166031;23;20017;-88
2022/03/13 12:06:41;;;;;;;17.63;10.00;;;;;;;;;;6134198;23;20025;-96
2022/03/13 12:09:08;;;;;;;16.58;10.15;;;14.10;99.90;;;;;;6131794;23;20018;-91
2022/03/13 12:12:02;;;;;;;13.35;9.50;;;14.10;99.90;;;;;;6164761;23;20016;-93
2022/03/13 12:14:51;;;;;;;17.77;9.40;;;14.30;99.90;;;;;;6157882;23;20100;-96
2022/03/13 12:17:18;;;;;;;16.55;10.25;;;;;;;;;;6108958;23;20018;-90
2022/03/13 12:19:45;;;;;;;12.65;8.88;;;;;;;;;;6111855;23;20018;-90
2022/03/13 12:22:12;;;;;;;14.60;9.88;;;;;;;;;;6099737;23;20559;-92
2022/03/13 12:24:38;;;;;;;17.92;12.00;;;;;;;;;;6134044;23;20017;-93
2022/03/13 12:27:07;;;;;;;15.07;10.35;;;;;;;;;;6133573;23;20014;-90
2022/03/13 12:29:33;;;;;;;17.70;8.98;;;;;;;;;;6132553;23;20092;-92
2022/03/13 12:32:00;;;;;;;14.52;10.20;;;;;;;;;;6107778;23;20021;-94
2022/03/13 12:34:32;;;;;;;12.98;9.05;;;;;;;;;;6135534;23;20053;-95
2022/03/13 12:37:02;;;;;;;13.50;8.93;;;14.80;99.90;;;;;;6131620;23;20045;-88
2022/03/13 12:39:28;;;;;;;16.50;10.57;;;;;;;;;;6106542;23;20026;-89
2022/03/13 12:42:01;;;;;;;12.25;9.52;;;;;;;;;;6131049;23;20479;-90
2022/03/13 12:44:30;;;;;;;19.92;10.38;;;;;;;;;;6105495;23;20088;-87
2022/03/13 12:46:57;;;;;;;14.95;9.02;;;;;;;;;;6130751;23;20017;-90
2022/03/13 12:49:28;;;;;;;13.85;8.52;;;14.90;99.90;;;;;;6104520;23;20045;-88
2022/03/13 12:51:55;;;;;;;14.40;10.38;;;;;;;;;;6148194;23;20024;-88
2022/03/13 12:54:21;;;;;;;17.77;10.40;;;;;;;;;;6192190;23;20025;-87
2022/03/13 12:57:01;;;;;;;15.07;10.70;;;;;;;;;;6220598;23;20322;-89
2022/03/13 12:59:27;;;;;;;13.98;10.38;;;;;;;;;;6220594;23;20016;-88
2022/03/13 13:02:21;;;;;;;14.57;10.32;;;15.00;99.90;;;;;;6195802;23;20457;-89
2022/03/13 13:04:47;;;;;;;14.50;11.15;;;;;;;;;;6197097;23;20016;-88
2022/03/13 13:07:14;;;;;;;13.55;9.77;;;;;;;;;;6195505;23;20023;-89
2022/03/13 13:09:44;;;;;;;15.07;10.65;;;15.10;99.90;;;;;;6196004;23;20070;-89
2022/03/13 13:12:12;;;;;;;14.30;10.15;;;15.00;99.90;;;;;;6195883;23;20012;-89
2022/03/13 13:14:39;;;;;;;15.43;10.52;;;;;;;;;;6195977;23;20074;-89
2022/03/13 13:17:14;;;;;;;15.45;10.73;;;15.10;99.90;;;;;;6196505;23;20016;-89
2022/03/13 13:19:42;;;;;;;18.52;11.23;;;15.20;99.90;;;;;;6197791;23;20019;-90
2022/03/13 13:22:12;;;;;;;16.83;11.60;;;15.40;99.90;;;;;;6220972;23;20016;-90
2022/03/13 13:24:47;;;;;;;15.35;11.10;;;;;;;;;;6221296;23;20027;-90
2022/03/13 13:27:30;;;;;;;15.52;10.52;;;15.30;99.90;;;;;;6197192;23;20012;-90
2022/03/13 13:29:56;;;;;;;15.75;10.70;;;;;;;;;;6197185;23;20021;-89
2022/03/13 13:32:28;;;;;;;14.15;10.45;;;;;;;;;;6195512;23;20020;-91
2022/03/13 13:35:13;;;;;;;14.90;10.60;;;15.30;99.90;;;;;;6221333;23;20024;-89
2022/03/13 13:37:55;;;;;;;16.02;11.10;;;15.30;99.90;;;;;;6195827;23;20016;-90
2022/03/13 13:40:22;;;;;;;16.92;10.88;;;;;;;;;;6195350;23;20016;-88
2022/03/13 13:42:55;;;;;;;16.75;11.82;;;;;;;;;;6220198;23;20016;-89
2022/03/13 13:45:23;;;;;;;17.60;10.80;;;15.20;99.90;;;;;;6195235;23;20023;-87
2022/03/13 13:47:49;;;;;;;15.50;11.40;;;15.40;99.90;;;;;;6195675;23;20020;-87
2022/03/13 13:50:22;;;;;;;15.43;10.82;;;15.30;99.90;;;;;;6193609;23;20086;-88
2022/03/13 13:53:02;;;;;;;16.83;11.38;;;15.50;99.90;;;;;;6181412;23;20019;-88
2022/03/13 13:55:33;;;;;;;17.05;11.73;;;15.40;99.90;;;;;;6193975;23;20086;-89
2022/03/13 13:58:23;;;;;;;20.55;11.93;;;15.40;99.90;;;;;;6194847;23;20397;-87
2022/03/13 14:00:49;;;;;;;16.33;11.90;;;15.40;99.90;;;;;;6220211;23;20016;-87
2022/03/13 14:03:15;;;;;;;17.05;11.40;;;;;;;;;;6247334;23;20024;-88
2022/03/13 14:05:42;;;;;;;19.80;11.20;;;;;;;;;;6247393;23;20020;-88
2022/03/13 14:08:08;;;;;;;15.52;10.70;;;;;;;;;;6197107;23;20013;-91
2022/03/13 14:10:34;;;;;;;13.45;11.20;;;;;;;;;;6221779;23;20024;-90
2022/03/13 14:13:01;;;;;;;16.63;11.35;;;;;;;;;;6220986;23;20016;-90
2022/03/13 14:18:02;;;;;;;14.75;10.07;;;15.80;99.90;;;;;;6216827;23;20350;-89
2022/03/13 14:20:28;;;;;;;13.82;10.77;;;;;;;;;;6165804;23;20052;-88
2022/03/13 14:22:54;;;;;;;16.63;11.43;;;;;;;;;;6168364;23;20442;-89
2022/03/13 14:25:21;;;;;;;14.52;10.48;;;;;;;;;;6167557;23;20013;-90
2022/03/13 14:27:47;;;;;;;20.42;12.05;;;;;;;;;;6191878;23;20032;-89
2022/03/13 14:30:14;;;;;;;14.68;10.40;;;;;;;;;;6192166;23;20023;-88
2022/03/13 14:32:43;;;;;;;17.17;10.70;;;;;;;;;;6192317;23;20012;-90
2022/03/13 14:35:09;;;;;;;14.35;11.23;;;;;;;;;;6167041;23;20020;-91
2022/03/13 14:37:35;;;;;;;15.40;10.52;;;;;;;;;;6168229;23;20012;-91
2022/03/13 14:40:10;;;;;;;15.68;10.95;;;15.60;99.90;;;;;;6156943;23;20021;-88
2022/03/13 14:42:47;;;;;;;15.73;10.95;;;;;;;;;;6169410;22;20028;-88
2022/03/13 14:45:14;;;;;;;17.67;10.52;;;;;;;;;;6196404;23;20026;-88
2022/03/13 14:47:43;;;;;;;17.05;11.02;;;;;;;;;;6155094;23;20319;-88
2022/03/13 14:50:11;;;;;;;16.60;11.45;;;;;;;;;;6154465;23;20017;-88
2022/03/13 14:52:44;;;;;;;16.55;11.40;;;;;;;;;;6177229;23;20095;-89
2022/03/13 14:55:14;;;;;;;15.40;10.82;;;;;;;;;;6178457;23;20032;-88
2022/03/13 14:57:46;;;;;;;15.77;10.32;;;;;;;;;;6188765;23;20013;-89
2022/03/13 15:00:13;;;;;;;15.57;10.23;;;;;;;;;;6179378;23;20103;-88
2022/03/13 15:02:39;;;;;;;15.55;10.05;;;;;;;;;;6183631;23;20013;-87
2022/03/13 15:05:06;;;;;;;15.55;10.65;;;;;;;;;;6183279;23;20046;-87
2022/03/13 15:07:32;;;;;;;13.57;11.20;;;;;;;;;;6182297;23;20016;-87
2022/03/13 15:09:58;;;;;;;12.27;10.38;;;;;;;;;;6208266;23;20021;-88
2022/03/13 15:12:27;;;;;;;16.05;11.63;;;;;;;;;;6184996;23;20025;-87
2022/03/13 15:14:54;;;;;;;12.75;10.45;;;;;;;;;;6185987;23;20021;-87
2022/03/13 15:19:59;;;;;;;15.13;10.70;;;15.80;99.90;;;;;;6211340;23;20021;-87
2022/03/13 15:22:25;;;;;;;13.10;10.02;;;;;;;;;;6210224;23;20025;-87
2022/03/13 15:24:52;;;;;;;14.55;10.02;;;;;;;;;;6210902;23;20024;-87
2022/03/13 15:27:21;;;;;;;14.30;10.20;;;;;;;;;;6236564;23;20022;-87
2022/03/13 15:29:48;;;;;;;13.27;10.30;;;;;;;;;;6211383;23;20017;-91
2022/03/13 15:32:14;;;;;;;14.55;9.20;;;;;;;;;;6211435;23;20009;-90
2022/03/13 15:34:40;;;;;;;12.23;9.02;;;;;;;;;;6187018;23;20017;-89
2022/03/13 15:37:07;;;;;;;12.48;10.05;;;;;;;;;;6211286;23;20017;-88
2022/03/13 15:39:33;;;;;;;12.52;8.95;;;;;;;;;;6212010;23;20048;-87
2022/03/13 15:41:59;;;;;;;15.07;9.60;;;;;;;;;;6189858;23;19997;-91
2022/03/13 15:44:26;;;;;;;13.57;9.98;;;;;;;;;;6191348;23;20359;-95
2022/03/13 15:49:26;;;;;;;;;;;16.00;99.90;;;;;;6266712;23;20031;-93
2022/03/13 15:51:53;;;;;;;13.57;9.95;;;;;;;;;;6189451;23;19915;-93
2022/03/13 15:54:19;;;;;;;13.90;9.85;;;;;;;;;;6238182;23;20047;-87
2022/03/13 15:56:45;;;;;;;18.92;10.40;;;;;;;;;;6213630;23;20046;-90